Tiff City, MO (64868)

22:53:CDT den 19. september 2014 (GMT -0500)
Grove Municipal | Change Station
CLOSE
Current Station
Flyplass
Location: Grove,
Høyde over havet: 833 ft
Nearby Weather Stations

H.o.h 833 ft 36.60 °N, 94.74 °W | Updated 18 minutes ago

Klart
Klart
70 °F
Feels Like 70 °F
N
0
Vind Variabel Vind from Nord

I dag
High -- | Low -- °F
--% Chance of Precip.
I går
High -- | Low -- °F
Precip. -- tommer
7:03 AM 7:19 PM
Minkende sigd, 15% visible
Lufttrykk 30.02 tommer
Sikt 3.0 eng. mil
Skyet Klart
Duggpunkt 70 °F
Fuktighet 100%
Regn 0.00 tommer
Snødybde Not available.
UV 0 av 12
Pollen 9.70 av 12
Luftkvalitet Not available.
Flu Activity Not available.
METAR KGMJ 200335Z AUTO 00000KT 3SM BR CLR 21/21 A3002 RMK AO2

More Conditions Fewer Conditions

Lufttrykk 30.02 tommer
Sikt 3.0 eng. mil
Skyet Klart
Duggpunkt 70 °F
Fuktighet 100%
Regn 0.00 tommer
Snødybde Not available.
UV 0 av 12
Pollen 9.70 av 12
Luftkvalitet Not available.
Flu Activity Not available.
METAR KGMJ 200335Z AUTO 00000KT 3SM BR CLR 21/21 A3002 RMK AO2

More Conditions Fewer Conditions

10-Day Weather Forecast

Almanac

Astronomi

Sep. 19, 2014 Oppgang Nedgang
Virkelig tid 07:03 CDT 19:19 CDT
Tussmørke 06:38 CDT 19:45 CDT
Nautisk skumring 06:07 CDT 20:15 CDT
Astronomisk skumring 05:36 CDT 20:46 CDT
Månen 02:55 CDT (9/19) 16:44 CDT (9/19)
Lengde av synlig lys 13h 07m
Dagens lengde
12h 15m
Tomorrow will be 2m 19s shorter.
Minkende sigd, 15% of the Moon is Illuminated
I dag
Minkende sigd
Sep 24
Ny
Oct 1
Første kvarter
Oct 8
Fullmåne
Oct 15
Siste kvarter

Dagens maks og min

State Highs State Lows

Community

WunderPhotos

Upload Photos

1,754,777 photos uploaded!

WunderBlogs® & News

Nearby

Snødybde

Stasjon Depth Høyde over havet
No new snow has been reported.

Earthquake Activity

By Distance Mag. Time & Date
No recent earthquake activity has been reported nearby.
Minimum magnitude displayed is 2.5.

Coastal Water Temperatures

Sted Temperatur
Ingen stasjoner raporterer

Nearby Weather Stations